createdAt,value
2018-11-26T00:01:07.209Z,90.70
2018-11-26T00:03:48.474Z,90.80
2018-11-26T00:06:29.878Z,91.00
2018-11-26T00:09:12.464Z,91.20
2018-11-26T00:11:54.256Z,91.40
2018-11-26T00:14:35.847Z,91.40
2018-11-26T00:17:17.230Z,91.40
2018-11-26T00:19:58.844Z,91.40
2018-11-26T00:22:41.262Z,91.50
2018-11-26T00:25:22.202Z,91.60
2018-11-26T00:28:03.817Z,91.60
2018-11-26T00:30:45.585Z,91.60
2018-11-26T00:33:27.195Z,91.60
2018-11-26T00:36:08.764Z,91.60
2018-11-26T00:38:50.379Z,91.40
2018-11-26T00:41:32.141Z,91.40
2018-11-26T00:44:13.745Z,91.30
2018-11-26T00:46:55.349Z,91.10
2018-11-26T00:49:37.571Z,91.10
2018-11-26T00:52:18.600Z,91.00
2018-11-26T00:55:00.086Z,91.00
2018-11-26T00:57:41.882Z,91.10
2018-11-26T01:00:23.284Z,91.20
2018-11-26T01:03:04.170Z,91.30
2018-11-26T01:05:45.742Z,91.20
2018-11-26T01:08:27.463Z,91.10
2018-11-26T01:11:09.107Z,91.00
2018-11-26T01:13:51.127Z,90.90
2018-11-26T01:16:32.795Z,90.70
2018-11-26T01:19:13.996Z,90.30
2018-11-26T01:21:55.614Z,90.40
2018-11-26T01:24:37.255Z,90.50
2018-11-26T01:27:18.793Z,90.60
2018-11-26T01:30:00.697Z,90.60
2018-11-26T01:32:41.741Z,90.50
2018-11-26T01:35:23.117Z,90.40
2018-11-26T01:38:05.518Z,90.20
2018-11-26T01:40:48.869Z,90.10
2018-11-26T01:43:30.116Z,89.40
2018-11-26T01:46:11.845Z,89.70
2018-11-26T01:48:53.870Z,90.10
2018-11-26T01:51:34.884Z,91.20
2018-11-26T01:54:16.399Z,91.10
2018-11-26T01:56:58.433Z,91.30
2018-11-26T01:59:39.857Z,91.40
2018-11-26T02:02:21.852Z,91.60
2018-11-26T02:05:03.588Z,91.20
2018-11-26T02:07:44.551Z,90.40
2018-11-26T02:10:26.130Z,89.00
2018-11-26T02:13:07.701Z,87.30
2018-11-26T02:15:49.287Z,87.00
2018-11-26T02:18:30.904Z,86.10
2018-11-26T02:21:12.592Z,86.30
2018-11-26T02:23:54.050Z,86.70
2018-11-26T02:26:35.876Z,87.40
2018-11-26T02:29:17.460Z,88.00
2018-11-26T02:31:58.928Z,89.00
2018-11-26T02:34:40.405Z,89.30
2018-11-26T02:37:21.994Z,90.00
2018-11-26T02:40:03.613Z,90.00
2018-11-26T02:42:45.842Z,90.00
2018-11-26T02:45:27.071Z,90.00
2018-11-26T02:48:08.451Z,89.20
2018-11-26T02:50:50.806Z,88.90
2018-11-26T02:53:32.454Z,88.10
2018-11-26T02:56:14.344Z,87.00
2018-11-26T02:58:55.959Z,86.70
2018-11-26T03:01:37.977Z,88.30
2018-11-26T03:04:19.934Z,87.50
2018-11-26T03:07:01.022Z,87.10
2018-11-26T03:09:43.088Z,88.20
2018-11-26T03:12:25.402Z,88.20
2018-11-26T03:15:07.127Z,88.50
2018-11-26T03:17:48.691Z,89.00
2018-11-26T03:20:30.964Z,89.60
2018-11-26T03:23:11.927Z,90.00
2018-11-26T03:25:54.007Z,89.80
2018-11-26T03:28:35.072Z,90.00
2018-11-26T03:31:17.285Z,88.00
2018-11-26T03:33:59.070Z,88.20
2018-11-26T03:36:40.755Z,87.90
2018-11-26T03:39:22.361Z,88.00
2018-11-26T03:42:04.015Z,88.10
2018-11-26T03:44:45.519Z,87.80
2018-11-26T03:47:27.299Z,87.60
2018-11-26T03:50:08.884Z,86.80
2018-11-26T03:52:50.942Z,87.40
2018-11-26T03:55:31.772Z,87.00
2018-11-26T03:58:13.468Z,87.20
2018-11-26T04:00:55.259Z,87.60
2018-11-26T04:03:37.142Z,89.10
2018-11-26T04:06:18.542Z,89.00
2018-11-26T04:09:00.312Z,89.20
2018-11-26T04:11:42.020Z,89.80
2018-11-26T04:14:23.720Z,90.10
2018-11-26T04:17:06.717Z,90.20
2018-11-26T04:19:48.018Z,90.10
2018-11-26T04:22:30.162Z,90.10
2018-11-26T04:25:11.097Z,89.90
2018-11-26T04:27:52.867Z,90.10
2018-11-26T04:30:34.966Z,90.50
2018-11-26T04:33:15.881Z,90.80
2018-11-26T04:35:57.966Z,91.50
2018-11-26T04:38:39.035Z,91.50
2018-11-26T04:41:20.941Z,91.60
2018-11-26T04:44:02.192Z,91.90
2018-11-26T04:46:43.513Z,92.30
2018-11-26T04:49:25.308Z,92.50
2018-11-26T04:52:06.284Z,92.60
2018-11-26T04:54:47.935Z,92.60
2018-11-26T04:57:29.630Z,92.50
2018-11-26T05:00:11.737Z,92.70
2018-11-26T05:02:52.722Z,92.90
2018-11-26T05:05:34.108Z,93.00
2018-11-26T05:08:16.416Z,93.10
2018-11-26T05:10:58.331Z,93.00
2018-11-26T05:13:39.363Z,92.90
2018-11-26T05:16:20.561Z,92.80
2018-11-26T05:19:02.953Z,92.80
2018-11-26T05:21:44.882Z,92.70
2018-11-26T05:24:26.454Z,92.80
2018-11-26T05:27:07.851Z,92.80
2018-11-26T05:29:50.026Z,92.80
2018-11-26T05:32:31.017Z,92.90
2018-11-26T05:35:12.605Z,92.80
2018-11-26T05:37:54.403Z,92.70
2018-11-26T05:40:36.194Z,92.70
2018-11-26T05:43:17.864Z,92.70
2018-11-26T05:45:59.760Z,92.70
2018-11-26T05:48:40.774Z,92.70
2018-11-26T05:51:22.530Z,92.70
2018-11-26T05:54:04.240Z,92.70
2018-11-26T05:56:46.343Z,92.80
2018-11-26T05:59:27.416Z,93.10
2018-11-26T06:02:08.985Z,93.50
2018-11-26T06:04:50.507Z,93.70
2018-11-26T06:07:32.180Z,94.00
2018-11-26T06:10:13.768Z,94.40
2018-11-26T06:12:55.665Z,94.40
2018-11-26T06:15:37.732Z,94.30
2018-11-26T06:18:18.841Z,94.40
2018-11-26T06:21:00.536Z,94.50
2018-11-26T06:23:41.820Z,94.70
2018-11-26T06:26:23.619Z,94.90
2018-11-26T06:29:05.200Z,95.10
2018-11-26T06:31:46.792Z,95.20
2018-11-26T06:34:28.356Z,95.30
2018-11-26T06:37:10.490Z,95.40
2018-11-26T06:39:52.156Z,95.40
2018-11-26T06:42:33.327Z,95.20
2018-11-26T06:45:15.028Z,94.90
2018-11-26T06:47:56.624Z,94.50
2018-11-26T06:50:39.526Z,94.60
2018-11-26T06:53:20.914Z,94.60
2018-11-26T06:56:02.824Z,94.60
2018-11-26T06:58:44.806Z,94.80
2018-11-26T07:01:25.789Z,95.00
2018-11-26T07:04:07.470Z,95.10
2018-11-26T07:06:49.701Z,95.30
2018-11-26T07:09:30.962Z,95.40
2018-11-26T07:12:12.325Z,95.40
2018-11-26T07:14:55.010Z,95.60
2018-11-26T07:17:36.541Z,95.90
2018-11-26T07:20:19.294Z,95.30
2018-11-26T07:23:00.984Z,94.90
2018-11-26T07:25:43.025Z,95.10
2018-11-26T07:28:24.391Z,95.10
2018-11-26T07:31:06.343Z,95.00
2018-11-26T07:33:47.512Z,95.10
2018-11-26T07:36:29.403Z,95.20
2018-11-26T07:39:10.581Z,95.10
2018-11-26T07:41:52.785Z,94.90
2018-11-26T07:44:33.964Z,94.60
2018-11-26T07:47:15.252Z,94.20
2018-11-26T07:49:57.039Z,94.20
2018-11-26T07:52:38.562Z,94.20
2018-11-26T07:55:20.116Z,94.40
2018-11-26T07:58:01.805Z,94.00
2018-11-26T08:00:43.295Z,93.80
2018-11-26T08:03:24.880Z,93.40
2018-11-26T08:06:08.976Z,92.90
2018-11-26T08:08:48.263Z,92.80
2018-11-26T08:11:29.610Z,92.20
2018-11-26T08:14:11.263Z,91.70
2018-11-26T08:16:52.824Z,92.70
2018-11-26T08:19:36.374Z,93.70
2018-11-26T08:22:18.049Z,94.80
2018-11-26T08:24:59.845Z,95.20
2018-11-26T08:27:41.246Z,96.00
2018-11-26T08:30:23.539Z,96.90
2018-11-26T08:33:05.326Z,96.80
2018-11-26T08:35:47.157Z,97.20
2018-11-26T08:38:33.625Z,97.10
2018-11-26T08:41:16.568Z,98.00
2018-11-26T08:43:58.162Z,98.10
2018-11-26T08:46:44.944Z,98.70
2018-11-26T08:49:27.461Z,99.10
2018-11-26T08:52:08.838Z,99.50
2018-11-26T08:54:50.528Z,99.90
2018-11-26T08:57:32.218Z,99.90
2018-11-26T09:00:13.808Z,99.90
2018-11-26T09:02:56.778Z,99.90
2018-11-26T09:05:45.689Z,99.90
2018-11-26T09:08:27.506Z,99.90
2018-11-26T09:11:09.279Z,99.90
2018-11-26T09:13:50.892Z,99.90
2018-11-26T09:16:32.455Z,99.90
2018-11-26T09:19:14.068Z,99.90
2018-11-26T09:21:56.757Z,99.90
2018-11-26T09:24:39.065Z,99.90
2018-11-26T09:27:20.200Z,99.90
2018-11-26T09:30:10.281Z,99.90
2018-11-26T09:32:52.074Z,99.90
2018-11-26T09:35:33.105Z,99.90
2018-11-26T09:38:14.688Z,99.90
2018-11-26T09:40:56.380Z,99.90
2018-11-26T09:43:37.790Z,99.90
2018-11-26T09:46:19.659Z,99.90
2018-11-26T09:49:01.679Z,99.90
2018-11-26T09:51:42.780Z,99.90
2018-11-26T09:54:26.100Z,99.90
2018-11-26T09:57:06.142Z,99.90
2018-11-26T09:59:47.500Z,99.90
2018-11-26T10:02:29.367Z,99.90
2018-11-26T10:05:10.912Z,99.90
2018-11-26T10:07:51.941Z,99.90
2018-11-26T10:10:33.413Z,99.90
2018-11-26T10:13:14.133Z,99.90
2018-11-26T10:15:56.012Z,99.90
2018-11-26T10:18:37.303Z,99.90
2018-11-26T10:21:20.352Z,99.90
2018-11-26T10:24:01.830Z,99.90
2018-11-26T10:26:43.729Z,99.90
2018-11-26T10:29:25.198Z,99.90
2018-11-26T10:32:06.697Z,99.90
2018-11-26T10:34:48.706Z,99.90
2018-11-26T10:37:29.846Z,99.90
2018-11-26T10:40:11.289Z,99.90
2018-11-26T10:42:53.150Z,99.90
2018-11-26T10:45:34.557Z,99.90
2018-11-26T10:48:16.205Z,99.90
2018-11-26T10:50:57.920Z,99.90
2018-11-26T10:53:39.565Z,99.90
2018-11-26T10:56:21.201Z,99.90
2018-11-26T10:59:03.783Z,99.90
2018-11-26T11:01:48.136Z,99.90
2018-11-26T11:04:29.224Z,99.90
2018-11-26T11:07:10.942Z,99.90
2018-11-26T11:09:52.616Z,99.90
2018-11-26T11:12:34.206Z,99.90
2018-11-26T11:15:15.801Z,99.90
2018-11-26T11:17:57.363Z,99.90
2018-11-26T11:20:38.885Z,99.90
2018-11-26T11:23:20.253Z,99.90
2018-11-26T11:26:02.924Z,99.90
2018-11-26T11:28:44.750Z,99.90
2018-11-26T11:31:26.432Z,99.90
2018-11-26T11:34:08.151Z,99.90
2018-11-26T11:36:49.884Z,99.20
2018-11-26T11:39:30.969Z,98.00
2018-11-26T11:42:12.372Z,95.80
2018-11-26T11:44:53.817Z,94.30
2018-11-26T11:47:34.631Z,91.30
2018-11-26T11:50:16.445Z,91.30
2018-11-26T11:52:57.604Z,90.30
2018-11-26T11:55:39.294Z,87.10
2018-11-26T11:58:21.232Z,87.30
2018-11-26T12:01:03.031Z,87.50
2018-11-26T12:03:43.832Z,85.20
2018-11-26T12:06:25.759Z,81.20
2018-11-26T12:09:07.237Z,82.80
2018-11-26T12:11:48.726Z,84.40
2018-11-26T12:14:30.845Z,84.90
2018-11-26T12:17:12.026Z,84.10
2018-11-26T12:19:53.697Z,83.50
2018-11-26T12:22:35.287Z,84.50
2018-11-26T12:25:16.773Z,80.30
2018-11-26T12:27:58.155Z,78.80
2018-11-26T12:30:39.947Z,80.20
2018-11-26T12:35:58.518Z,79.50
2018-11-26T12:38:39.519Z,77.00
2018-11-26T12:41:21.082Z,75.00
2018-11-26T12:44:02.773Z,71.80
2018-11-26T12:46:44.162Z,71.20
2018-11-26T12:49:25.949Z,65.10
2018-11-26T12:52:08.854Z,64.10
2018-11-26T12:54:50.695Z,60.70
2018-11-26T12:57:32.048Z,59.80
2018-11-26T13:00:13.673Z,59.90
2018-11-26T13:02:55.637Z,55.70
2018-11-26T13:05:36.711Z,56.00
2018-11-26T13:08:18.345Z,56.20
2018-11-26T13:10:59.994Z,57.60
2018-11-26T13:13:41.276Z,58.90
2018-11-26T13:16:22.792Z,60.30
2018-11-26T13:19:04.348Z,64.00
2018-11-26T13:21:45.935Z,65.60
2018-11-26T13:24:27.423Z,67.20
2018-11-26T13:27:09.119Z,66.70
2018-11-26T13:29:50.601Z,70.00
2018-11-26T13:32:31.983Z,72.00
2018-11-26T13:35:13.790Z,71.90
2018-11-26T13:37:55.268Z,72.10
2018-11-26T13:40:36.854Z,74.90
2018-11-26T13:43:18.348Z,77.00
2018-11-26T13:46:00.030Z,76.80
2018-11-26T13:48:41.777Z,76.90
2018-11-26T13:51:23.176Z,78.00
2018-11-26T13:54:05.104Z,77.70
2018-11-26T13:56:46.384Z,76.60
2018-11-26T13:59:28.078Z,76.90
2018-11-26T14:02:09.670Z,78.10
2018-11-26T14:04:51.841Z,79.00
2018-11-26T14:07:32.970Z,75.60
2018-11-26T14:10:14.635Z,76.20
2018-11-26T14:12:56.225Z,78.30
2018-11-26T14:15:37.815Z,79.50
2018-11-26T14:18:19.505Z,78.70
2018-11-26T14:21:00.890Z,77.10
2018-11-26T14:23:42.479Z,78.00
2018-11-26T14:26:24.412Z,76.60
2018-11-26T14:29:05.877Z,77.00
2018-11-26T14:31:47.349Z,78.40
2018-11-26T14:34:28.938Z,79.60
2018-11-26T14:37:10.727Z,80.90
2018-11-26T14:39:52.219Z,76.80
2018-11-26T14:42:33.803Z,79.20
2018-11-26T14:45:15.602Z,81.70
2018-11-26T14:47:57.189Z,81.50
2018-11-26T14:50:38.601Z,81.40
2018-11-26T14:53:20.158Z,81.70
2018-11-26T14:56:01.896Z,82.40
2018-11-26T14:58:43.647Z,83.20
2018-11-26T15:01:25.539Z,83.00
2018-11-26T15:04:07.029Z,83.90
2018-11-26T15:06:48.514Z,82.90
2018-11-26T15:09:30.000Z,85.70
2018-11-26T15:12:12.023Z,86.60
2018-11-26T15:14:53.380Z,86.80
2018-11-26T15:17:35.476Z,88.90
2018-11-26T15:20:16.683Z,87.90
2018-11-26T15:22:58.965Z,86.50
2018-11-26T15:25:40.759Z,86.20
2018-11-26T15:28:22.042Z,86.40
2018-11-26T15:31:03.836Z,88.70
2018-11-26T15:33:45.227Z,90.20
2018-11-26T15:36:27.125Z,90.80
2018-11-26T15:39:08.398Z,90.90
2018-11-26T15:41:50.522Z,91.60
2018-11-26T15:44:31.788Z,91.40
2018-11-26T15:47:14.084Z,91.40
2018-11-26T15:49:55.907Z,91.90
2018-11-26T15:52:37.568Z,90.60
2018-11-26T15:55:19.983Z,91.20
2018-11-26T15:58:01.584Z,90.80
2018-11-26T16:00:43.187Z,90.60
2018-11-26T16:03:25.051Z,88.60
2018-11-26T16:06:06.638Z,87.60
2018-11-26T16:08:48.124Z,87.40
2018-11-26T16:11:29.735Z,86.70
2018-11-26T16:14:11.199Z,86.40
2018-11-26T16:16:52.891Z,85.60
2018-11-26T16:19:34.381Z,86.30
2018-11-26T16:22:15.972Z,87.10
2018-11-26T16:24:57.759Z,86.90
2018-11-26T16:27:39.170Z,86.70
2018-11-26T16:30:20.753Z,85.50
2018-11-26T16:33:02.466Z,88.10
2018-11-26T16:35:44.030Z,87.90
2018-11-26T16:38:26.141Z,88.00
2018-11-26T16:41:07.551Z,88.70
2018-11-26T16:43:50.462Z,87.10
2018-11-26T16:46:31.903Z,87.90
2018-11-26T16:49:13.493Z,88.10
2018-11-26T16:51:54.875Z,90.00
2018-11-26T16:54:36.464Z,90.60
2018-11-26T16:57:18.052Z,86.40
2018-11-26T16:59:59.540Z,87.10
2018-11-26T17:02:40.922Z,86.50
2018-11-26T17:05:22.717Z,87.70
2018-11-26T17:08:04.205Z,89.80
2018-11-26T17:10:45.791Z,88.20
2018-11-26T17:13:27.175Z,87.30
2018-11-26T17:16:09.330Z,86.60
2018-11-26T17:18:50.454Z,86.70
2018-11-26T17:21:32.149Z,86.60
2018-11-26T17:24:13.948Z,86.20
2018-11-26T17:26:55.222Z,86.30
2018-11-26T17:29:36.810Z,86.40
2018-11-26T17:32:18.398Z,86.60
2018-11-26T17:35:00.325Z,85.60
2018-11-26T17:37:43.045Z,86.00
2018-11-26T17:40:23.174Z,86.40
2018-11-26T17:43:04.677Z,86.50
2018-11-26T17:45:46.135Z,86.70
2018-11-26T17:48:27.727Z,86.00
2018-11-26T17:51:09.112Z,86.50
2018-11-26T17:53:50.727Z,85.60
2018-11-26T17:56:32.507Z,85.90
2018-11-26T17:59:14.411Z,85.50
2018-11-26T18:01:56.390Z,84.80
2018-11-26T18:04:38.284Z,85.40
2018-11-26T18:07:20.284Z,85.40
2018-11-26T18:10:02.399Z,85.80
2018-11-26T18:12:43.561Z,85.90
2018-11-26T18:15:25.179Z,84.90
2018-11-26T18:18:06.983Z,84.70
2018-11-26T18:20:48.429Z,85.10
2018-11-26T18:23:30.743Z,84.50
2018-11-26T18:26:11.811Z,84.50
2018-11-26T18:28:53.402Z,84.30
2018-11-26T18:31:35.090Z,84.50
2018-11-26T18:34:16.577Z,84.60
2018-11-26T18:36:57.962Z,84.70
2018-11-26T18:39:39.572Z,84.90
2018-11-26T18:42:21.244Z,84.50
2018-11-26T18:45:03.441Z,84.10
2018-11-26T18:47:44.884Z,84.30
2018-11-26T18:50:26.520Z,84.20
2018-11-26T18:53:07.800Z,83.70
2018-11-26T18:55:49.391Z,84.30
2018-11-26T18:58:30.977Z,83.90
2018-11-26T19:01:12.977Z,84.30
2018-11-26T19:03:54.565Z,84.40
2018-11-26T19:06:36.545Z,84.00
2018-11-26T19:09:17.949Z,84.40
2018-11-26T19:12:04.013Z,84.40
2018-11-26T19:14:40.921Z,84.30
2018-11-26T19:17:22.610Z,84.30
2018-11-26T19:20:04.205Z,83.70
2018-11-26T19:22:46.105Z,83.60
2018-11-26T19:25:27.376Z,83.50
2018-11-26T19:28:09.720Z,83.80
2018-11-26T19:30:53.321Z,84.50
2018-11-26T19:33:35.163Z,84.40
2018-11-26T19:36:17.008Z,84.40
2018-11-26T19:38:58.701Z,84.40
2018-11-26T19:41:40.186Z,84.80
2018-11-26T19:44:22.302Z,85.10
2018-11-26T19:47:03.843Z,85.50
2018-11-26T19:49:46.183Z,85.80
2018-11-26T19:52:27.603Z,86.40
2018-11-26T19:55:09.772Z,85.90
2018-11-26T19:57:51.388Z,85.50
2018-11-26T20:00:32.842Z,85.50
2018-11-26T20:03:14.432Z,85.10
2018-11-26T20:05:55.949Z,85.70
2018-11-26T20:08:38.025Z,85.90
2018-11-26T20:11:19.302Z,85.70
2018-11-26T20:14:00.990Z,86.20
2018-11-26T20:16:43.643Z,86.80
2018-11-26T20:19:25.298Z,87.00
2018-11-26T20:22:06.576Z,88.10
2018-11-26T20:24:48.169Z,86.10
2018-11-26T20:27:29.649Z,87.00
2018-11-26T20:30:11.281Z,86.50
2018-11-26T20:32:52.859Z,86.00
2018-11-26T20:35:34.417Z,86.20
2018-11-26T20:38:16.416Z,85.70
2018-11-26T20:40:58.004Z,85.60
2018-11-26T20:43:39.596Z,85.80
2018-11-26T20:46:21.186Z,85.40
2018-11-26T20:49:02.976Z,85.30
2018-11-26T20:51:44.566Z,85.60
2018-11-26T20:54:26.173Z,85.10
2018-11-26T20:57:07.945Z,86.20
2018-11-26T20:59:49.741Z,85.80
2018-11-26T21:02:31.226Z,85.80
2018-11-26T21:05:12.863Z,85.80
2018-11-26T21:07:54.505Z,86.30
2018-11-26T21:10:35.954Z,86.10
2018-11-26T21:13:17.915Z,85.80
2018-11-26T21:16:00.060Z,86.30
2018-11-26T21:18:41.986Z,86.10
2018-11-26T21:21:23.574Z,86.70
2018-11-26T21:24:05.065Z,86.60
2018-11-26T21:26:46.752Z,87.00
2018-11-26T21:29:28.141Z,87.10
2018-11-26T21:32:09.957Z,87.00
2018-11-26T21:34:51.320Z,87.10
2018-11-26T21:37:33.114Z,87.20
2018-11-26T21:40:20.055Z,87.10
2018-11-26T21:42:56.079Z,87.40
2018-11-26T21:45:37.824Z,87.40
2018-11-26T21:48:20.273Z,87.50
2018-11-26T21:51:02.325Z,88.20
2018-11-26T21:53:44.483Z,87.60
2018-11-26T21:56:26.709Z,87.60
2018-11-26T21:59:08.019Z,87.00
2018-11-26T22:01:50.169Z,87.70
2018-11-26T22:04:32.272Z,86.90
2018-11-26T22:07:14.371Z,86.80
2018-11-26T22:09:55.653Z,87.10
2018-11-26T22:12:37.241Z,86.80
2018-11-26T22:15:18.938Z,87.10
2018-11-26T22:18:01.681Z,86.70
2018-11-26T22:20:43.381Z,86.50
2018-11-26T22:23:25.127Z,86.80
2018-11-26T22:26:06.434Z,86.40
2018-11-26T22:28:48.257Z,85.50
2018-11-26T22:31:29.899Z,85.40
2018-11-26T22:34:11.796Z,85.50
2018-11-26T22:36:53.386Z,85.80
2018-11-26T22:39:34.907Z,85.70
2018-11-26T22:42:16.049Z,83.10
2018-11-26T22:44:57.893Z,83.40
2018-11-26T22:47:39.329Z,83.50
2018-11-26T22:50:21.326Z,83.70
2018-11-26T22:53:03.291Z,84.20
2018-11-26T22:55:45.117Z,84.60
2018-11-26T22:58:26.705Z,84.10
2018-11-26T23:01:08.216Z,84.70
2018-11-26T23:03:49.915Z,84.80
2018-11-26T23:06:32.008Z,84.30
2018-11-26T23:09:13.163Z,84.50
2018-11-26T23:11:55.468Z,84.10
2018-11-26T23:14:37.366Z,83.60
2018-11-26T23:17:19.362Z,83.20
2018-11-26T23:20:00.542Z,83.40
2018-11-26T23:22:42.130Z,83.40
2018-11-26T23:25:23.849Z,83.00
2018-11-26T23:28:05.513Z,82.80
2018-11-26T23:30:47.102Z,82.40
2018-11-26T23:33:28.693Z,81.70
2018-11-26T23:36:10.100Z,81.70
2018-11-26T23:38:51.767Z,81.00
2018-11-26T23:41:33.485Z,81.80
2018-11-26T23:44:15.256Z,81.50
2018-11-26T23:46:57.479Z,81.50
2018-11-26T23:49:38.634Z,81.10
2018-11-26T23:52:20.324Z,81.10
2018-11-26T23:55:01.811Z,81.30
2018-11-26T23:57:43.503Z,82.10
